createdAt,value
2022-09-01T06:36:03.323Z,15.20
2022-09-01T06:41:06.696Z,15.40
2022-09-01T06:46:09.109Z,15.60
2022-09-01T07:18:58.886Z,16.80
2022-09-01T07:29:45.619Z,17.20
2022-09-01T07:34:49.156Z,17.40
2022-09-01T07:39:52.150Z,17.50
2022-09-01T07:44:54.092Z,17.70
2022-09-01T07:50:37.018Z,18.00
2022-09-01T07:55:19.243Z,18.40
2022-09-01T08:00:21.397Z,18.60
2022-09-01T08:05:24.579Z,18.50
2022-09-01T08:10:26.838Z,18.60
2022-09-01T08:20:51.875Z,18.90
2022-09-01T08:25:53.866Z,19.00
2022-09-01T08:30:55.722Z,19.00
2022-09-01T08:35:59.242Z,19.10
2022-09-01T08:41:02.083Z,19.60
2022-09-01T08:46:11.590Z,19.70
2022-09-01T08:51:21.646Z,19.70
2022-09-01T08:56:24.058Z,19.90
2022-09-01T09:01:31.746Z,19.80
2022-09-01T09:06:42.184Z,19.90
2022-09-01T09:12:08.917Z,20.20
2022-09-01T09:17:11.122Z,20.50
2022-09-01T09:22:17.015Z,20.70
2022-09-01T09:27:21.588Z,20.70
2022-09-01T09:32:44.916Z,21.10
2022-09-01T09:37:48.873Z,21.50
2022-09-01T09:43:04.722Z,22.20
2022-09-01T09:48:10.750Z,22.90
2022-09-01T09:53:26.828Z,23.20
2022-09-01T09:58:35.921Z,22.80
2022-09-01T10:03:43.951Z,22.80
2022-09-01T10:08:47.398Z,22.70
2022-09-01T10:13:55.635Z,23.00
2022-09-01T10:19:00.402Z,23.10
2022-09-01T10:24:17.692Z,23.80
2022-09-01T10:29:25.552Z,24.00
2022-09-01T10:34:28.825Z,23.90
2022-09-01T10:39:36.754Z,24.10
2022-09-01T10:44:57.774Z,23.40
2022-09-01T10:50:07.639Z,22.90
2022-09-01T10:55:25.013Z,22.70
2022-09-01T11:01:15.584Z,22.80
2022-09-01T11:07:11.647Z,23.30
2022-09-01T11:12:29.852Z,23.30
2022-09-01T11:18:11.122Z,23.90
2022-09-01T11:23:23.232Z,23.90
2022-09-01T11:29:08.547Z,24.30
2022-09-01T11:40:00.556Z,24.20
2022-09-01T12:12:40.400Z,25.10
2022-09-01T12:17:43.909Z,25.00
2022-09-01T12:22:46.095Z,24.40
2022-09-01T12:27:50.035Z,23.70
2022-09-01T12:33:22.954Z,23.90
2022-09-01T12:38:28.315Z,24.10
2022-09-01T12:43:34.544Z,24.90
2022-09-01T12:48:38.893Z,25.70
2022-09-01T12:53:42.570Z,25.30
2022-09-01T13:04:25.939Z,24.50
2022-09-01T13:09:28.057Z,24.20
2022-09-01T13:14:29.842Z,23.90
2022-09-01T13:19:33.215Z,23.80
2022-09-01T13:24:35.146Z,24.00
2022-09-01T13:29:37.076Z,24.00
2022-09-01T13:34:40.273Z,24.00
2022-09-01T13:39:42.272Z,24.20
2022-09-01T13:44:44.443Z,25.10
2022-09-01T13:55:12.033Z,24.60
2022-09-01T14:00:24.344Z,24.80
2022-09-01T14:05:29.089Z,24.80
2022-09-01T14:10:31.688Z,24.90
2022-09-01T14:15:34.109Z,25.40
2022-09-01T14:20:42.358Z,25.10
2022-09-01T14:25:45.628Z,25.60
2022-09-01T14:30:47.784Z,25.60
2022-09-01T14:35:54.369Z,25.00
2022-09-01T14:40:56.431Z,24.60
2022-09-01T14:46:05.981Z,24.70
2022-09-01T14:51:11.847Z,25.40
2022-09-01T14:56:13.690Z,25.80
2022-09-01T15:01:33.107Z,25.80
2022-09-01T15:06:37.368Z,25.90
2022-09-01T15:11:44.076Z,25.50
2022-09-01T15:16:46.225Z,25.20
2022-09-01T15:21:49.435Z,25.00
2022-09-01T15:26:51.270Z,24.90
2022-09-01T15:31:54.222Z,24.70
2022-09-01T15:36:57.469Z,25.00
2022-09-01T15:41:59.347Z,25.10
2022-09-01T15:47:01.209Z,25.10
2022-09-01T15:52:04.678Z,25.10
2022-09-01T15:57:06.824Z,24.90
2022-09-01T16:02:11.649Z,24.90
2022-09-01T16:07:14.976Z,24.70
2022-09-01T16:12:16.801Z,24.90
2022-09-01T16:17:25.928Z,25.00
2022-09-01T16:22:32.920Z,25.00
2022-09-01T16:27:38.700Z,25.00
2022-09-01T16:32:44.952Z,24.80
2022-09-01T16:37:55.987Z,24.70
2022-09-01T16:43:04.776Z,24.50
2022-09-01T16:48:17.844Z,24.50
2022-09-01T16:53:37.927Z,24.10
2022-09-01T17:04:31.931Z,23.40
2022-09-01T17:09:40.324Z,23.20
2022-09-01T17:14:48.181Z,23.30
2022-09-01T17:25:22.688Z,23.30
2022-09-01T17:30:32.329Z,23.30
2022-09-01T17:35:39.140Z,23.10
2022-09-01T17:40:56.177Z,23.20
2022-09-01T17:46:05.604Z,22.90
2022-09-01T17:51:13.619Z,22.80
2022-09-01T17:56:37.084Z,22.80
2022-09-01T18:01:47.538Z,22.50
2022-09-01T18:06:56.193Z,22.10
2022-09-01T18:12:02.490Z,21.50
2022-09-01T18:17:10.701Z,20.90
2022-09-01T18:22:16.266Z,20.50
2022-09-01T18:27:19.493Z,20.20
2022-09-01T18:32:34.490Z,20.10
2022-09-01T18:37:45.050Z,20.10
2022-09-01T18:42:58.983Z,20.10
2022-09-01T18:48:08.062Z,19.90
2022-09-01T18:53:20.169Z,19.50
2022-09-01T18:58:35.119Z,19.30
2022-09-01T19:03:41.748Z,19.00
2022-09-01T19:08:52.340Z,18.80
2022-09-01T19:14:04.357Z,18.60
2022-09-01T19:19:19.545Z,18.40
2022-09-01T19:24:26.084Z,18.20
2022-09-01T19:29:33.332Z,17.90
2022-09-01T19:34:39.242Z,17.80
2022-09-01T19:39:44.455Z,17.60
2022-09-01T19:44:50.573Z,17.40
2022-09-01T19:49:57.029Z,17.50
2022-09-01T19:55:04.978Z,17.50
2022-09-01T20:00:14.884Z,17.50
2022-09-01T20:05:26.503Z,17.60
2022-09-01T20:10:49.668Z,17.60
2022-09-01T20:16:07.376Z,17.80
2022-09-01T20:21:20.814Z,17.90
2022-09-01T20:26:26.380Z,18.00
2022-09-01T20:31:33.374Z,17.80
2022-09-01T20:36:51.710Z,17.80
2022-09-01T20:41:58.267Z,17.90
2022-09-01T20:47:02.794Z,18.00
2022-09-01T20:52:11.581Z,18.30
2022-09-01T20:57:35.973Z,18.10
2022-09-01T21:02:46.876Z,18.10
2022-09-01T21:07:55.643Z,18.00
2022-09-01T21:13:10.781Z,17.90
2022-09-01T21:18:30.067Z,17.40
2022-09-01T21:23:31.843Z,17.20
2022-09-01T21:28:33.928Z,16.90
2022-09-01T21:33:37.096Z,16.90
2022-09-01T21:38:38.872Z,17.00
2022-09-01T21:43:43.688Z,17.00
2022-09-01T21:48:47.041Z,17.00
2022-09-01T21:53:48.817Z,16.90
2022-09-01T21:58:50.554Z,16.90
2022-09-01T22:03:53.672Z,16.90
2022-09-01T22:08:55.420Z,17.00
2022-09-01T22:13:58.717Z,17.20
2022-09-01T22:19:01.965Z,17.40
2022-09-01T22:24:04.239Z,17.40
2022-09-01T22:29:07.007Z,17.10
2022-09-01T22:34:10.264Z,16.80
2022-09-01T22:39:13.269Z,16.80
2022-09-01T22:44:15.069Z,17.00
2022-09-01T22:49:18.372Z,17.00
2022-09-01T22:54:20.241Z,17.20
2022-09-01T22:59:22.068Z,17.30
2022-09-01T23:04:25.213Z,17.10
2022-09-01T23:09:28.906Z,16.90
2022-09-01T23:14:30.649Z,16.70
2022-09-01T23:19:33.868Z,16.50
2022-09-01T23:24:35.651Z,16.30
2022-09-01T23:29:37.412Z,16.00
2022-09-01T23:34:40.536Z,15.90
2022-09-01T23:39:42.660Z,15.70
2022-09-01T23:44:44.416Z,15.70
2022-09-01T23:49:47.525Z,15.50
2022-09-01T23:54:49.381Z,15.50
2022-09-01T23:59:51.173Z,15.50
